Main page
METAR-TAF:

METAR-TAF

Airports :

Madrid-Getafe, Spain

Getafe Air Base

latitude: 40-18N, longitude: 003-43W, elevation: 620 m

Current weather observation

The report was made 5 hours and 33 minutes ago, at 23:00 UTC
Wind 8 kt from the West, varying between Southwest and West/Northwest
Temperature 19°C
Humidity 56%
Pressure 1014 hPa
Visibility 10 km or more
no clouds below 1500 m and no cumulonimbus

METAR: LEGT 262300Z 26008KT 230V290 CAVOK 19/10 Q1014

Time: 06:33 (04:33 UTC)

Forecast

The report was made 11 hours and 33 minutes ago, at 17:00 UTC
Forecast valid from 26 at 18 UTC to 27 at 03 UTC
Wind 11 kt from the West/Southwest
Visibility 10 km or more
no clouds below 1500 m and no cumulonimbus
Probability 30% :
Temporary
from 26 at 18 UTC to 26 at 20 UTC
Few clouds at a height of 4500 ft, Towering cumulus.

TAF: LEGT 261700Z 2618/2703 25011KT CAVOK PROB30 TEMPO 2618/2620 FEW045TCU

Weather observations and forecasts of more than 4000 airports (METAR and TAF reports).

The available stations are represented by yellow and red dots on the map.

Hover mouse over dot to see the name of the station.

Then click to see weather observations and forecasts.

To change the map : click on the green buttons with a black cross to zoom in, on the green button with a dash to zoom out, or on the green arrows for adjacent maps.


METAR-TAF: